Terminal Aerodrome Forecast
Issued by NWS Mobile, AL

Current Version | Previous Version | Text Only | Print | Product List | Glossary On
Versions: 1 2 3 4 5 6 7 8 9 10 11 12 13
000
FTUS44 KMOB 261121
TAFPNS
TAF
KPNS 261121Z 2612/2712 19009KT P6SM FEW029
     FM261400 17011G19KT P6SM FEW050 BKN250
     FM262300 17016G23KT P6SM OVC015
     FM270300 16016KT P6SM VCSH OVC015
     FM270600 16014KT 4SM BR VCSH OVC007 PROB30 2709/2712 3SM -TSRA
      BKN007CB=

USA.gov is the U.S. government's official web portal to all federal, state and local government web resources and services.